Time;durP1;ratioP1;P1;durP2;ratioP2;P2;SDS_P1;SDS_P2;PMS_P1;PMS_P2;Temp;Humidity;BMP_temperature;BMP_pressure;BME280_temperature;BME280_humidity;BME280_pressure;Samples;Min_cycle;Max_cycle;Signal;HPM_P1;HPM_P2
2023/10/08 00:01:21;;;;;;;0.20;0.20;;;;;;;;;;4964952;28;20078;-80
2023/10/08 00:03:51;;;;;;;0.20;0.20;;;;;;;;;;4965354;28;20393;-80
2023/10/08 00:06:21;;;;;;;0.50;0.10;;;;;;;;;;4962021;28;20034;-80
2023/10/08 00:08:47;;;;;;;0.77;0.20;;;;;;;;;;4961901;28;20506;-80
2023/10/08 00:11:15;;;;;;;0.85;0.20;;;;;;;;;;4961392;28;20019;-80
2023/10/08 00:13:41;;;;;;;0.10;0.10;;;;;;;;;;4961633;28;20078;-80
2023/10/08 00:16:11;;;;;;;1.80;0.35;;;;;;;;;;4962498;28;20047;-80
2023/10/08 00:18:38;;;;;;;0.35;0.20;;;;;;;;;;4962243;28;20493;-80
2023/10/08 00:23:42;;;;;;;1.30;0.35;;;;;;;;;;4965911;28;20031;-80
2023/10/08 00:26:12;;;;;;;0.77;0.20;;;;;;;;;;4965867;28;20050;-80
2023/10/08 00:28:40;;;;;;;0.47;0.20;;;;;;;;;;4966119;28;20039;-80
2023/10/08 00:31:11;;;;;;;1.27;0.30;;;;;;;;;;4966947;28;20030;-80
2023/10/08 00:33:38;;;;;;;0.30;0.10;;;;;;;;;;4967229;28;20025;-80
2023/10/08 00:36:20;;;;;;;0.43;0.10;;;;;;;;;;4966625;28;20027;-80
2023/10/08 00:38:51;;;;;;;0.30;0.10;;;;;;;;;;4965687;28;20027;-80
2023/10/08 00:41:27;;;;;;;1.00;0.20;;;;;;;;;;4963043;28;20351;-80
2023/10/08 00:43:55;;;;;;;0.47;0.40;;;;;;;;;;4964231;28;20459;-80
2023/10/08 00:46:30;;;;;;;0.70;0.50;;;;;;;;;;4963776;28;20454;-80
2023/10/08 00:48:57;;;;;;;1.45;0.40;;;;;;;;;;4964581;28;20026;-80
2023/10/08 00:51:40;;;;;;;1.00;0.20;;;;;;;;;;4962860;28;20073;-80
2023/10/08 00:54:07;;;;;;;0.88;0.20;;;;;;;;;;4964335;28;20019;-80
2023/10/08 00:56:53;;;;;;;1.85;0.30;;;;;;;;;;4964789;28;20127;-80
2023/10/08 00:59:23;;;;;;;2.03;0.30;;;;;;;;;;4962294;29;20161;-80
2023/10/08 01:02:04;;;;;;;1.23;0.20;;;;;;;;;;4966865;28;20025;-81
2023/10/08 01:04:33;;;;;;;1.05;0.30;;;;;;;;;;4968990;28;20096;-81
2023/10/08 01:07:12;;;;;;;2.20;0.70;;;;;;;;;;4968781;29;20039;-81
2023/10/08 01:09:39;;;;;;;0.95;0.22;;;;;;;;;;4970226;28;20050;-81
2023/10/08 01:12:12;;;;;;;0.20;0.20;;;;;;;;;;4970554;28;20019;-81
2023/10/08 01:14:42;;;;;;;0.63;0.28;;;;;;;;;;4972987;28;20019;-81
2023/10/08 01:17:08;;;;;;;0.38;0.20;;;;;;;;;;4976966;28;20007;-80
2023/10/08 01:19:39;;;;;;;0.52;0.28;;;;;;;;;;4976510;28;20027;-81
2023/10/08 01:22:21;;;;;;;1.10;0.40;;;;;;;;;;4974724;28;20100;-81
2023/10/08 01:24:48;;;;;;;1.60;0.30;;;;;;;;;;4972579;28;20023;-81
2023/10/08 01:27:23;;;;;;;2.10;0.30;;;;;;;;;;4973923;28;20035;-81
2023/10/08 01:29:50;;;;;;;2.08;0.30;;;;;;;;;;4971472;28;20070;-81
2023/10/08 01:32:17;;;;;;;2.22;0.55;;;;;;;;;;4969747;28;20027;-81
2023/10/08 01:34:45;;;;;;;1.27;0.40;;;;;;;;;;4971102;28;20027;-80
2023/10/08 01:37:18;;;;;;;1.60;0.30;;;;;;;;;;4970273;29;20039;-81
2023/10/08 01:39:49;;;;;;;2.10;0.30;;;;;;;;;;4967775;28;20035;-81
2023/10/08 01:42:23;;;;;;;1.10;0.38;;;;;;;;;;4966878;28;20050;-81
2023/10/08 01:44:54;;;;;;;3.25;0.50;;;;;;;;;;4964406;29;20031;-81
2023/10/08 01:47:20;;;;;;;1.00;0.40;;;;;;;;;;4965839;28;20028;-80
2023/10/08 01:49:46;;;;;;;0.95;0.40;;;;;;;;;;4965591;28;20137;-81
2023/10/08 01:52:16;;;;;;;2.83;0.50;;;;;;;;;;4966428;28;20046;-80
2023/10/08 01:54:44;;;;;;;3.05;0.40;;;;;;;;;;4966040;28;20084;-80
2023/10/08 01:57:10;;;;;;;1.85;0.57;;;;;;;;;;4965450;29;20023;-80
2023/10/08 01:59:37;;;;;;;1.17;0.50;;;;;;;;;;4966476;28;20027;-81
2023/10/08 02:02:05;;;;;;;1.50;0.50;;;;;;;;;;4967367;28;20019;-80
2023/10/08 02:04:33;;;;;;;2.78;0.50;;;;;;;;;;4966788;28;20023;-80
2023/10/08 02:06:59;;;;;;;2.97;0.60;;;;;;;;;;4967560;28;20024;-79
2023/10/08 02:09:26;;;;;;;1.17;0.50;;;;;;;;;;4966321;28;20378;-81
2023/10/08 02:11:53;;;;;;;1.20;0.43;;;;;;;;;;4965470;28;20023;-80
2023/10/08 02:14:20;;;;;;;2.60;0.43;;;;;;;;;;4965939;28;20470;-81
2023/10/08 02:16:46;;;;;;;2.90;0.57;;;;;;;;;;4964665;28;20475;-80
2023/10/08 02:19:13;;;;;;;2.70;0.40;;;;;;;;;;4964738;28;20023;-80
2023/10/08 02:21:40;;;;;;;2.95;0.60;;;;;;;;;;4964556;28;20108;-80
2023/10/08 02:24:12;;;;;;;2.42;0.40;;;;;;;;;;4963210;28;20493;-80
2023/10/08 02:26:38;;;;;;;2.63;0.30;;;;;;;;;;4963220;28;20015;-80
2023/10/08 02:29:10;;;;;;;3.30;0.60;;;;;;;;;;4962544;28;20059;-80
2023/10/08 02:31:40;;;;;;;1.90;0.50;;;;;;;;;;4963590;28;20024;-80
2023/10/08 02:34:10;;;;;;;3.33;0.30;;;;;;;;;;4963616;28;20024;-81
2023/10/08 02:36:42;;;;;;;2.80;0.60;;;;;;;;;;4963233;28;20026;-81
2023/10/08 02:39:13;;;;;;;3.50;0.50;;;;;;;;;;4963900;28;20027;-81
2023/10/08 02:41:45;;;;;;;1.92;0.50;;;;;;;;;;4963601;28;20015;-81
2023/10/08 02:44:14;;;;;;;3.25;0.55;;;;;;;;;;4962884;28;20031;-81
2023/10/08 02:46:47;;;;;;;2.03;0.43;;;;;;;;;;4963579;28;20082;-81
2023/10/08 02:49:19;;;;;;;2.00;0.40;;;;;;;;;;4964098;28;20305;-80
2023/10/08 02:51:45;;;;;;;2.15;0.43;;;;;;;;;;4962404;29;20042;-80
2023/10/08 02:54:18;;;;;;;1.92;0.30;;;;;;;;;;4963507;28;20023;-80
2023/10/08 02:56:58;;;;;;;3.03;0.60;;;;;;;;;;4963924;28;20556;-80
2023/10/08 02:59:28;;;;;;;1.88;0.73;;;;;;;;;;4962780;28;20070;-80
2023/10/08 03:01:55;;;;;;;1.08;0.35;;;;;;;;;;4962685;28;20541;-81
2023/10/08 03:04:22;;;;;;;2.35;0.35;;;;;;;;;;4963390;28;20438;-81
2023/10/08 03:06:52;;;;;;;1.30;0.32;;;;;;;;;;4962254;28;20039;-81
2023/10/08 03:09:20;;;;;;;3.00;0.68;;;;;;;;;;4962976;28;20030;-81
2023/10/08 03:11:50;;;;;;;2.75;0.70;;;;;;;;;;4963656;28;20083;-80
2023/10/08 03:14:23;;;;;;;1.15;0.50;;;;;;;;;;4962162;29;20023;-80
2023/10/08 03:16:52;;;;;;;2.90;0.70;;;;;;;;;;4963056;28;20032;-81
2023/10/08 03:19:19;;;;;;;2.15;0.60;;;;;;;;;;4962920;28;20023;-80
2023/10/08 03:21:51;;;;;;;1.45;0.57;;;;;;;;;;4962394;28;20019;-80
2023/10/08 03:27:07;;;;;;;3.00;0.60;;;;;;;;;;4962612;28;20071;-80
2023/10/08 03:29:40;;;;;;;2.22;0.65;;;;;;;;;;4961977;28;20078;-80
2023/10/08 03:32:06;;;;;;;2.47;0.65;;;;;;;;;;4962443;28;20019;-81
2023/10/08 03:34:34;;;;;;;0.98;0.60;;;;;;;;;;4962630;28;20070;-80
2023/10/08 03:37:05;;;;;;;0.98;0.50;;;;;;;;;;4967190;28;20031;-80
2023/10/08 03:39:50;;;;;;;2.92;0.90;;;;;;;;;;4966825;28;20023;-80
2023/10/08 03:42:20;;;;;;;2.25;0.52;;;;;;;;;;4965908;28;20042;-80
2023/10/08 03:44:51;;;;;;;3.08;0.80;;;;;;;;;;4966491;28;20019;-80
2023/10/08 03:47:18;;;;;;;1.08;0.50;;;;;;;;;;4967198;28;20114;-80
2023/10/08 03:49:45;;;;;;;1.02;0.55;;;;;;;;;;4966188;28;20047;-81
2023/10/08 03:52:15;;;;;;;2.15;0.88;;;;;;;;;;4966718;28;20028;-80
2023/10/08 03:54:48;;;;;;;1.75;0.57;;;;;;;;;;4967102;28;20059;-81
2023/10/08 03:57:25;;;;;;;4.07;0.70;;;;;;;;;;4967557;28;20026;-80
2023/10/08 03:59:55;;;;;;;1.67;0.75;;;;;;;;;;4967356;28;20074;-80
2023/10/08 04:02:39;;;;;;;;;;;;;;;;;;4966914;28;20106;-81
2023/10/08 04:05:18;;;;;;;4.03;0.73;;;;;;;;;;4966355;29;19906;-81
2023/10/08 04:08:16;;;;;;;3.03;0.80;;;;;;;;;;4966236;28;20059;-80
2023/10/08 04:13:08;;;;;;;2.28;0.70;;;;;;;;;;4967001;28;20031;-80
2023/10/08 04:15:34;;;;;;;;;;;;;;;;;;4967559;29;20030;-81
2023/10/08 04:18:02;;;;;;;3.40;0.80;;;;;;;;;;4966170;29;19907;-80
2023/10/08 04:23:04;;;;;;;0.90;0.80;;;;;;;;;;4965677;28;20032;-80
2023/10/08 04:25:31;;;;;;;2.00;0.90;;;;;;;;;;4974757;28;20043;-80
2023/10/08 04:28:00;;;;;;;2.97;0.85;;;;;;;;;;4976276;28;20035;-80
2023/10/08 04:30:32;;;;;;;2.42;0.80;;;;;;;;;;4967888;28;20027;-80
2023/10/08 04:33:15;;;;;;;3.90;0.85;;;;;;;;;;4978286;28;20026;-80
2023/10/08 04:35:48;;;;;;;1.92;0.60;;;;;;;;;;4972295;28;20389;-80
2023/10/08 04:38:18;;;;;;;2.85;0.80;;;;;;;;;;4964104;28;20030;-80
2023/10/08 04:40:53;;;;;;;2.70;0.80;;;;;;;;;;4965120;28;20019;-80
2023/10/08 04:43:27;;;;;;;4.15;0.80;;;;;;;;;;4965946;28;20509;-80
2023/10/08 04:45:53;;;;;;;1.80;0.80;;;;;;;;;;4966330;28;20087;-80
2023/10/08 04:48:29;;;;;;;3.20;0.90;;;;;;;;;;4965082;28;20039;-80
2023/10/08 04:50:59;;;;;;;2.55;1.10;;;;;;;;;;4964748;28;20047;-81
2023/10/08 04:53:40;;;;;;;3.08;1.08;;;;;;;;;;4964377;28;20050;-80
2023/10/08 04:56:16;;;;;;;4.97;0.90;;;;;;;;;;4964657;28;20026;-81
2023/10/08 04:58:46;;;;;;;1.48;0.75;;;;;;;;;;4964998;28;20031;-80
2023/10/08 05:01:18;;;;;;;1.98;0.90;;;;;;;;;;4964140;28;20470;-80
2023/10/08 05:17:09;;;;;;;3.30;1.05;;;;;;;;;;4965422;28;20545;-80
2023/10/08 05:30:17;;;;;;;4.60;0.98;;;;;;;;;;4964337;28;20031;-80
2023/10/08 05:35:48;;;;;;;5.18;1.45;;;;;;;;;;4964411;29;20042;-81
2023/10/08 05:39:01;;;;;;;4.40;1.30;;;;;;;;;;4962595;29;20102;-81
2023/10/08 05:49:00;;;;;;;7.35;1.40;;;;;;;;;;4964212;29;20058;-81
2023/10/08 05:59:53;;;;;;;7.70;1.33;;;;;;;;;;4976251;28;20063;-79
2023/10/08 06:05:22;;;;;;;5.50;1.30;;;;;;;;;;4976341;28;20027;-79
2023/10/08 06:08:11;;;;;;;5.72;1.23;;;;;;;;;;4961499;28;20035;-79
2023/10/08 06:13:05;;;;;;;3.75;1.13;;;;;;;;;;4960180;28;20078;-80
2023/10/08 06:15:48;;;;;;;5.03;1.27;;;;;;;;;;4958070;29;20039;-80
2023/10/08 06:18:18;;;;;;;5.72;1.33;;;;;;;;;;4960303;28;20030;-79
2023/10/08 06:20:44;;;;;;;3.47;1.33;;;;;;;;;;4959828;28;20059;-80
2023/10/08 06:23:13;;;;;;;7.10;1.20;;;;;;;;;;4960056;28;20034;-80
2023/10/08 06:25:45;;;;;;;4.22;1.13;;;;;;;;;;4960561;28;20478;-79
2023/10/08 06:28:18;;;;;;;4.88;1.13;;;;;;;;;;4958610;28;20039;-80
2023/10/08 06:30:44;;;;;;;6.28;1.35;;;;;;;;;;4961139;28;20025;-81
2023/10/08 06:33:11;;;;;;;6.15;1.40;;;;;;;;;;4960044;28;20083;-80
2023/10/08 06:35:37;;;;;;;6.60;1.25;;;;;;;;;;4959630;29;20087;-80
2023/10/08 06:38:09;;;;;;;3.47;0.82;;;;;;;;;;4963032;28;20110;-79
2023/10/08 06:43:21;;;;;;;5.10;1.00;;;;;;;;;;4960627;28;20477;-79
2023/10/08 06:45:52;;;;;;;4.95;1.10;;;;;;;;;;4962584;28;20020;-79
2023/10/08 06:48:18;;;;;;;;;;;;;;;;;;4964129;28;20050;-79
2023/10/08 06:50:48;;;;;;;7.45;1.10;;;;;;;;;;4962714;29;19919;-80
2023/10/08 06:53:14;;;;;;;5.53;1.48;;;;;;;;;;4964087;28;20075;-80
2023/10/08 06:55:41;;;;;;;3.97;1.30;;;;;;;;;;4965237;28;20079;-79
2023/10/08 06:58:14;;;;;;;7.07;1.60;;;;;;;;;;4965011;28;20393;-80
2023/10/08 07:00:46;;;;;;;8.05;1.38;;;;;;;;;;4964836;28;20059;-80
2023/10/08 07:03:17;;;;;;;4.18;1.40;;;;;;;;;;4963509;28;20027;-80
2023/10/08 07:05:59;;;;;;;4.97;1.30;;;;;;;;;;4961912;28;20026;-80
2023/10/08 07:08:26;;;;;;;6.97;1.40;;;;;;;;;;4964405;28;20034;-80
2023/10/08 07:10:53;;;;;;;4.18;1.33;;;;;;;;;;4961454;28;20023;-80
2023/10/08 07:13:21;;;;;;;7.43;1.50;;;;;;;;;;4961834;28;20174;-79
2023/10/08 07:15:51;;;;;;;7.35;1.52;;;;;;;;;;4963263;28;20439;-80
2023/10/08 07:18:27;;;;;;;3.25;1.63;;;;;;;;;;4962749;28;20047;-80
2023/10/08 07:20:54;;;;;;;4.50;1.63;;;;;;;;;;4959909;29;20035;-79
2023/10/08 07:23:29;;;;;;;5.78;1.30;;;;;;;;;;4962828;28;20034;-79
2023/10/08 07:26:11;;;;;;;3.45;1.25;;;;;;;;;;4962632;28;20103;-79
2023/10/08 07:28:41;;;;;;;5.80;1.42;;;;;;;;;;4959170;28;20097;-78
2023/10/08 07:31:17;;;;;;;2.92;1.40;;;;;;;;;;4960588;28;20068;-79
2023/10/08 07:33:43;;;;;;;3.65;1.38;;;;;;;;;;4959288;28;20422;-79
2023/10/08 07:36:12;;;;;;;9.10;1.65;;;;;;;;;;4958987;28;20019;-78
2023/10/08 07:38:45;;;;;;;5.03;1.45;;;;;;;;;;4957862;28;20115;-79
2023/10/08 07:41:12;;;;;;;4.88;1.30;;;;;;;;;;4957772;28;20102;-79
2023/10/08 07:43:39;;;;;;;3.88;1.80;;;;;;;;;;4956548;29;20046;-79
2023/10/08 07:46:05;;;;;;;8.10;2.70;;;;;;;;;;4958336;28;20050;-79
2023/10/08 07:48:31;;;;;;;9.00;2.30;;;;;;;;;;4957390;29;20035;-79
2023/10/08 07:50:58;;;;;;;10.38;1.90;;;;;;;;;;4957972;28;20410;-79
2023/10/08 07:53:24;;;;;;;7.32;1.75;;;;;;;;;;4958583;28;20031;-79
2023/10/08 07:55:51;;;;;;;8.43;1.75;;;;;;;;;;4961096;28;20094;-79
2023/10/08 07:58:20;;;;;;;6.63;1.70;;;;;;;;;;4957555;28;20054;-79
2023/10/08 08:00:51;;;;;;;6.55;1.63;;;;;;;;;;4958355;28;20114;-80
2023/10/08 08:03:20;;;;;;;7.05;1.50;;;;;;;;;;4958270;28;20026;-79
2023/10/08 08:05:47;;;;;;;5.13;1.30;;;;;;;;;;4956857;28;20495;-79
2023/10/08 08:08:17;;;;;;;8.75;1.48;;;;;;;;;;4958972;28;20031;-80
2023/10/08 08:10:43;;;;;;;5.60;1.10;;;;;;;;;;4957631;28;20031;-80
2023/10/08 08:13:09;;;;;;;7.93;1.48;;;;;;;;;;4956668;28;20020;-79
2023/10/08 08:15:42;;;;;;;5.05;1.30;;;;;;;;;;4956916;28;20034;-79
2023/10/08 08:18:18;;;;;;;7.13;1.48;;;;;;;;;;4957127;28;20106;-79
2023/10/08 08:20:45;;;;;;;10.05;2.20;;;;;;;;;;4958394;28;20023;-79
2023/10/08 08:23:11;;;;;;;7.57;1.90;;;;;;;;;;4961950;28;20489;-79
2023/10/08 08:26:12;;;;;;;6.30;1.40;;;;;;;;;;4961287;28;20087;-79
2023/10/08 08:28:30;;;;;;;4.03;1.17;;;;;;;;;;4961509;29;20031;-79
2023/10/08 08:31:04;;;;;;;5.03;1.15;;;;;;;;;;4962163;28;20038;-79
2023/10/08 08:33:46;;;;;;;6.93;1.02;;;;;;;;;;4961553;28;20561;-79
2023/10/08 08:36:15;;;;;;;3.38;1.00;;;;;;;;;;4961354;28;20035;-80
2023/10/08 08:38:41;;;;;;;3.25;1.08;;;;;;;;;;4961893;28;20031;-80
2023/10/08 08:41:12;;;;;;;2.90;0.90;;;;;;;;;;4960761;28;20034;-80
2023/10/08 08:43:43;;;;;;;4.22;1.13;;;;;;;;;;4960543;28;20019;-80
2023/10/08 08:46:12;;;;;;;3.80;0.88;;;;;;;;;;4958929;29;20050;-80
2023/10/08 08:48:39;;;;;;;4.90;1.20;;;;;;;;;;4959822;28;20628;-80
2023/10/08 08:51:06;;;;;;;3.38;1.00;;;;;;;;;;4960926;28;20051;-79
2023/10/08 08:53:33;;;;;;;8.45;1.30;;;;;;;;;;4960175;28;20023;-79
2023/10/08 08:56:00;;;;;;;4.38;1.15;;;;;;;;;;4959564;28;20042;-79
2023/10/08 08:58:26;;;;;;;6.57;1.10;;;;;;;;;;4959438;29;20034;-80
2023/10/08 09:00:54;;;;;;;7.22;0.93;;;;;;;;;;4960605;28;20027;-80
2023/10/08 09:03:20;;;;;;;7.28;0.93;;;;;;;;;;4959864;28;20451;-80
2023/10/08 09:05:50;;;;;;;8.35;0.93;;;;;;;;;;4960510;28;20098;-79
2023/10/08 09:08:18;;;;;;;7.05;1.30;;;;;;;;;;4960625;28;20406;-80
2023/10/08 09:10:56;;;;;;;3.15;0.70;;;;;;;;;;4960892;28;20107;-79
2023/10/08 09:13:23;;;;;;;7.72;1.10;;;;;;;;;;4960588;28;20418;-79
2023/10/08 09:15:52;;;;;;;5.15;1.15;;;;;;;;;;4960983;28;20032;-79
2023/10/08 09:18:18;;;;;;;6.57;0.90;;;;;;;;;;4961259;28;20081;-80
2023/10/08 09:20:47;;;;;;;4.15;0.88;;;;;;;;;;4961521;28;20114;-80
2023/10/08 09:23:17;;;;;;;6.45;1.05;;;;;;;;;;4961117;28;20023;-80
2023/10/08 09:25:44;;;;;;;4.03;1.05;;;;;;;;;;4959350;29;20438;-80
2023/10/08 09:28:12;;;;;;;5.07;0.98;;;;;;;;;;4960899;28;20115;-80
2023/10/08 09:30:39;;;;;;;3.22;0.75;;;;;;;;;;4961414;28;20075;-80
2023/10/08 09:33:09;;;;;;;3.53;0.98;;;;;;;;;;4960669;28;20034;-79
2023/10/08 09:35:36;;;;;;;7.45;1.20;;;;;;;;;;4958065;29;20034;-79
2023/10/08 09:38:11;;;;;;;4.38;0.88;;;;;;;;;;4962293;28;20027;-79
2023/10/08 09:40:48;;;;;;;2.13;0.70;;;;;;;;;;4960238;28;20110;-79
2023/10/08 09:43:16;;;;;;;5.38;1.00;;;;;;;;;;4960886;28;20019;-80
2023/10/08 09:45:52;;;;;;;5.15;0.90;;;;;;;;;;4958420;29;20043;-79
2023/10/08 09:48:23;;;;;;;5.10;0.88;;;;;;;;;;4962057;28;20177;-80
2023/10/08 09:50:52;;;;;;;5.00;0.82;;;;;;;;;;4959465;28;20070;-80
2023/10/08 09:53:22;;;;;;;1.77;0.40;;;;;;;;;;4960914;28;20485;-80
2023/10/08 09:55:51;;;;;;;3.13;0.98;;;;;;;;;;4961008;28;20027;-80
2023/10/08 09:58:17;;;;;;;4.05;0.90;;;;;;;;;;4961136;28;20030;-78
2023/10/08 10:00:48;;;;;;;5.10;0.90;;;;;;;;;;4962028;28;20030;-79
2023/10/08 10:03:14;;;;;;;5.32;1.00;;;;;;;;;;4961607;28;20059;-80
2023/10/08 10:05:44;;;;;;;4.10;1.05;;;;;;;;;;4961599;28;20027;-80
2023/10/08 10:08:10;;;;;;;6.00;1.10;;;;;;;;;;4962910;28;20038;-79
2023/10/08 10:10:39;;;;;;;4.90;1.08;;;;;;;;;;4962078;28;20059;-80
2023/10/08 10:13:09;;;;;;;4.15;0.90;;;;;;;;;;4962902;28;20031;-80
2023/10/08 10:15:38;;;;;;;5.00;0.80;;;;;;;;;;4963582;28;20031;-80
2023/10/08 10:18:19;;;;;;;7.05;1.00;;;;;;;;;;4961981;28;20446;-79
2023/10/08 10:20:55;;;;;;;6.00;1.10;;;;;;;;;;4961642;29;20042;-80
2023/10/08 10:23:37;;;;;;;6.78;0.90;;;;;;;;;;4959448;29;20402;-80
2023/10/08 10:26:09;;;;;;;3.63;0.60;;;;;;;;;;4960781;28;20026;-80
2023/10/08 10:28:38;;;;;;;2.17;0.70;;;;;;;;;;4960357;28;20027;-80
2023/10/08 10:31:09;;;;;;;6.97;0.82;;;;;;;;;;4960210;28;20058;-80
2023/10/08 10:33:39;;;;;;;9.30;1.50;;;;;;;;;;4961331;28;20031;-80
2023/10/08 10:36:11;;;;;;;9.63;0.98;;;;;;;;;;4958558;29;20039;-80
2023/10/08 10:38:42;;;;;;;6.00;0.90;;;;;;;;;;4958828;29;20039;-79
2023/10/08 10:41:09;;;;;;;8.70;1.20;;;;;;;;;;4960590;28;20020;-80
2023/10/08 10:43:40;;;;;;;4.43;0.95;;;;;;;;;;4959822;28;20026;-80
2023/10/08 10:46:30;;;;;;;6.60;1.05;;;;;;;;;;4961271;29;20059;-80
2023/10/08 10:51:57;;;;;;;4.47;0.90;;;;;;;;;;4966177;29;20113;-80
2023/10/08 10:54:35;;;;;;;5.30;1.00;;;;;;;;;;4966225;29;20039;-80
2023/10/08 10:57:16;;;;;;;5.72;1.20;;;;;;;;;;4967547;28;20023;-79
2023/10/08 10:59:53;;;;;;;4.45;1.02;;;;;;;;;;4963229;29;20038;-80
2023/10/08 11:02:31;;;;;;;5.05;1.17;;;;;;;;;;4964284;28;20023;-80
2023/10/08 11:05:19;;;;;;;5.88;1.02;;;;;;;;;;4965528;28;20026;-80
2023/10/08 11:07:45;;;;;;;4.35;1.13;;;;;;;;;;4970123;28;20058;-80
2023/10/08 11:10:15;;;;;;;8.63;1.17;;;;;;;;;;4968919;28;20102;-80
2023/10/08 11:12:53;;;;;;;2.47;0.90;;;;;;;;;;4968214;28;20410;-80
2023/10/08 11:15:23;;;;;;;2.97;0.73;;;;;;;;;;4964038;29;20488;-80
2023/10/08 11:17:52;;;;;;;7.82;0.88;;;;;;;;;;4963480;28;20023;-80
2023/10/08 11:20:27;;;;;;;4.53;0.93;;;;;;;;;;4963823;28;20023;-81
2023/10/08 11:22:54;;;;;;;5.55;0.90;;;;;;;;;;4963418;28;20023;-80
2023/10/08 11:25:27;;;;;;;5.38;1.10;;;;;;;;;;4962808;28;20078;-80
2023/10/08 11:28:08;;;;;;;4.78;1.00;;;;;;;;;;4961260;29;20061;-80
2023/10/08 11:30:35;;;;;;;5.70;0.95;;;;;;;;;;4960787;29;20035;-80
2023/10/08 11:33:01;;;;;;;5.38;1.10;;;;;;;;;;4962542;28;20016;-81
2023/10/08 11:35:28;;;;;;;5.55;1.08;;;;;;;;;;4961883;28;20058;-81
2023/10/08 11:38:03;;;;;;;5.18;0.90;;;;;;;;;;4960127;29;20034;-80
2023/10/08 11:40:29;;;;;;;4.10;0.73;;;;;;;;;;4962089;28;20031;-80
2023/10/08 11:42:59;;;;;;;7.25;0.95;;;;;;;;;;4962276;28;20146;-80
2023/10/08 11:45:38;;;;;;;4.75;0.80;;;;;;;;;;4961303;28;20011;-80
2023/10/08 11:48:11;;;;;;;4.60;0.80;;;;;;;;;;4961094;28;20027;-80
2023/10/08 11:50:44;;;;;;;8.05;1.10;;;;;;;;;;4961641;28;20451;-80
2023/10/08 11:53:11;;;;;;;7.03;1.30;;;;;;;;;;4961355;28;20047;-81
2023/10/08 11:55:42;;;;;;;5.90;1.05;;;;;;;;;;4961799;28;20050;-80
2023/10/08 11:58:11;;;;;;;4.40;1.02;;;;;;;;;;4964846;28;20086;-80
2023/10/08 12:00:43;;;;;;;6.47;1.00;;;;;;;;;;4965394;28;20031;-80
2023/10/08 12:03:10;;;;;;;4.88;1.00;;;;;;;;;;4964780;28;20027;-80
2023/10/08 12:05:38;;;;;;;5.55;1.00;;;;;;;;;;4964491;28;20025;-81
2023/10/08 12:08:08;;;;;;;6.90;0.90;;;;;;;;;;4965002;29;20038;-79
2023/10/08 12:10:34;;;;;;;4.13;1.40;;;;;;;;;;4962213;29;20118;-79
2023/10/08 12:13:00;;;;;;;7.63;1.42;;;;;;;;;;4962917;28;20442;-79
2023/10/08 12:15:38;;;;;;;6.97;1.05;;;;;;;;;;4962632;28;20019;-80
2023/10/08 12:20:49;;;;;;;5.07;1.13;;;;;;;;;;4969835;29;20055;-80
2023/10/08 12:23:29;;;;;;;5.57;0.80;;;;;;;;;;4976751;28;20034;-80
2023/10/08 12:25:56;;;;;;;7.47;1.10;;;;;;;;;;4977172;28;20019;-80
2023/10/08 12:28:26;;;;;;;6.57;1.55;;;;;;;;;;4976350;28;20058;-80
2023/10/08 12:30:52;;;;;;;6.97;1.13;;;;;;;;;;4973962;28;20486;-80
2023/10/08 12:33:23;;;;;;;5.28;1.10;;;;;;;;;;4963856;28;20035;-80
2023/10/08 12:35:53;;;;;;;6.22;1.30;;;;;;;;;;4965469;28;20020;-80
2023/10/08 12:38:22;;;;;;;7.78;1.27;;;;;;;;;;4961930;28;20559;-80
2023/10/08 12:40:52;;;;;;;4.20;0.90;;;;;;;;;;4961044;29;20027;-80
2023/10/08 12:43:22;;;;;;;2.92;1.00;;;;;;;;;;4963155;28;20034;-81
2023/10/08 12:45:56;;;;;;;5.32;1.20;;;;;;;;;;4962396;28;20381;-80
2023/10/08 12:48:26;;;;;;;6.38;1.30;;;;;;;;;;4963022;28;20402;-80
2023/10/08 12:50:59;;;;;;;4.28;0.98;;;;;;;;;;4960898;28;20137;-81
2023/10/08 12:53:38;;;;;;;5.03;0.90;;;;;;;;;;4961578;29;20414;-80
2023/10/08 12:56:14;;;;;;;4.50;1.08;;;;;;;;;;4963517;28;20023;-80
2023/10/08 12:58:41;;;;;;;4.80;0.90;;;;;;;;;;4963374;28;20031;-80
2023/10/08 13:01:10;;;;;;;3.33;0.75;;;;;;;;;;4962012;28;20020;-80
2023/10/08 13:03:41;;;;;;;3.97;1.08;;;;;;;;;;4962456;28;20055;-80
2023/10/08 13:06:11;;;;;;;3.47;0.80;;;;;;;;;;4961739;28;20047;-80
2023/10/08 13:08:39;;;;;;;;;;;;;;;;;;4961691;29;20063;-81
2023/10/08 13:11:06;;;;;;;5.32;0.93;;;;;;;;;;4964916;29;19942;-80
2023/10/08 13:13:36;;;;;;;7.15;1.40;;;;;;;;;;4963641;28;20032;-80
2023/10/08 13:16:07;;;;;;;3.88;1.00;;;;;;;;;;4963519;28;20024;-80
2023/10/08 13:18:33;;;;;;;3.90;0.70;;;;;;;;;;4965218;28;20478;-80
2023/10/08 13:21:00;;;;;;;3.53;1.00;;;;;;;;;;4963807;28;20036;-79
2023/10/08 13:23:26;;;;;;;3.50;0.85;;;;;;;;;;4961589;28;20023;-79
2023/10/08 13:25:55;;;;;;;4.20;0.93;;;;;;;;;;4960148;28;20023;-79
2023/10/08 13:28:34;;;;;;;4.17;0.80;;;;;;;;;;4960063;28;20038;-79
2023/10/08 13:31:09;;;;;;;3.00;0.90;;;;;;;;;;4959752;29;20257;-79
2023/10/08 13:33:42;;;;;;;4.07;0.90;;;;;;;;;;4958937;28;20074;-78
2023/10/08 13:36:13;;;;;;;5.32;0.75;;;;;;;;;;4960717;28;20023;-78
2023/10/08 13:38:45;;;;;;;5.60;0.98;;;;;;;;;;4960310;28;20382;-78
2023/10/08 13:41:20;;;;;;;5.43;0.88;;;;;;;;;;4959568;28;20041;-78
2023/10/08 13:43:47;;;;;;;3.90;0.93;;;;;;;;;;4958583;29;20448;-79
2023/10/08 13:46:14;;;;;;;4.20;0.73;;;;;;;;;;4959529;28;20363;-79
2023/10/08 13:48:40;;;;;;;5.18;1.00;;;;;;;;;;4959110;28;20057;-79
2023/10/08 13:51:13;;;;;;;6.43;1.23;;;;;;;;;;4958387;28;20051;-79
2023/10/08 13:53:40;;;;;;;5.57;1.00;;;;;;;;;;4959417;28;20493;-79
2023/10/08 13:56:06;;;;;;;3.28;0.82;;;;;;;;;;4958759;28;20028;-79
2023/10/08 13:58:35;;;;;;;5.20;1.00;;;;;;;;;;4959787;28;20031;-79
2023/10/08 14:01:01;;;;;;;7.43;1.10;;;;;;;;;;4962179;28;20074;-79
2023/10/08 14:03:30;;;;;;;7.05;1.23;;;;;;;;;;4961868;28;20027;-79
2023/10/08 14:05:59;;;;;;;9.23;1.17;;;;;;;;;;4961713;28;20464;-79
2023/10/08 14:08:28;;;;;;;7.15;0.88;;;;;;;;;;4961850;28;20086;-79
2023/10/08 14:11:00;;;;;;;5.22;0.95;;;;;;;;;;4962991;28;20028;-79
2023/10/08 14:13:27;;;;;;;4.03;0.77;;;;;;;;;;4963128;28;20059;-79
2023/10/08 14:15:55;;;;;;;5.43;1.20;;;;;;;;;;4960873;28;20019;-78
2023/10/08 14:18:28;;;;;;;5.78;0.85;;;;;;;;;;4955898;28;20028;-78
2023/10/08 14:20:54;;;;;;;4.78;1.00;;;;;;;;;;4958321;28;20030;-78
2023/10/08 14:23:25;;;;;;;5.65;0.90;;;;;;;;;;4957542;28;20158;-78
2023/10/08 14:25:52;;;;;;;6.82;1.00;;;;;;;;;;4957430;28;20063;-78
2023/10/08 14:28:39;;;;;;;4.30;0.80;;;;;;;;;;4957042;28;20039;-78
2023/10/08 14:31:06;;;;;;;5.72;1.55;;;;;;;;;;4949006;28;20024;-79
2023/10/08 14:33:41;;;;;;;4.35;0.88;;;;;;;;;;4936503;29;20114;-79
2023/10/08 14:44:21;;;;;;;5.95;1.33;;;;;;;;;;4919128;29;20031;-78
2023/10/08 14:46:47;;;;;;;5.25;0.80;;;;;;;;;;4919216;29;20028;-78
2023/10/08 14:49:13;;;;;;;2.72;0.80;;;;;;;;;;4920344;29;20040;-78
2023/10/08 14:51:40;;;;;;;3.53;0.80;;;;;;;;;;4918546;29;20059;-78
2023/10/08 14:54:07;;;;;;;4.65;0.90;;;;;;;;;;4919562;29;20432;-78
2023/10/08 14:56:34;;;;;;;3.75;1.00;;;;;;;;;;4918448;29;20379;-78
2023/10/08 14:59:00;;;;;;;4.75;1.17;;;;;;;;;;4918137;29;20515;-78
2023/10/08 15:01:27;;;;;;;5.05;1.15;;;;;;;;;;4918975;29;20024;-78
2023/10/08 15:03:53;;;;;;;5.03;1.38;;;;;;;;;;4919544;29;20024;-79
2023/10/08 15:06:20;;;;;;;6.50;1.10;;;;;;;;;;4921159;29;20032;-79
2023/10/08 15:08:46;;;;;;;7.00;1.20;;;;;;;;;;4920064;29;20035;-79
2023/10/08 15:11:13;;;;;;;6.22;1.40;;;;;;;;;;4920809;29;20021;-80
2023/10/08 15:13:39;;;;;;;5.32;1.00;;;;;;;;;;4920885;29;20471;-81
2023/10/08 15:16:05;;;;;;;3.33;0.85;;;;;;;;;;4922264;29;20040;-80
2023/10/08 15:18:32;;;;;;;5.60;1.10;;;;;;;;;;4919884;29;20503;-79
2023/10/08 15:21:04;;;;;;;4.65;1.08;;;;;;;;;;4918470;29;20020;-79
2023/10/08 15:23:32;;;;;;;5.95;1.20;;;;;;;;;;4919497;29;20491;-79
2023/10/08 15:25:58;;;;;;;5.15;1.50;;;;;;;;;;4919838;29;20024;-79
2023/10/08 15:28:24;;;;;;;6.30;1.15;;;;;;;;;;4919744;29;20043;-79
2023/10/08 15:30:50;;;;;;;6.60;1.80;;;;;;;;;;4923361;29;20459;-79
2023/10/08 15:33:16;;;;;;;8.00;2.42;;;;;;;;;;4927194;29;20024;-79
2023/10/08 15:35:42;;;;;;;6.13;2.33;;;;;;;;;;4927519;29;20035;-79
2023/10/08 15:38:08;;;;;;;7.20;1.77;;;;;;;;;;4927561;29;20110;-79
2023/10/08 15:40:34;;;;;;;8.27;2.30;;;;;;;;;;4925588;29;20080;-79
2023/10/08 15:43:00;;;;;;;9.35;1.90;;;;;;;;;;4929755;29;20032;-79
2023/10/08 15:45:26;;;;;;;5.57;1.20;;;;;;;;;;4930629;29;20118;-79
2023/10/08 15:47:52;;;;;;;4.28;1.02;;;;;;;;;;4931094;29;20127;-79
2023/10/08 15:50:20;;;;;;;4.93;1.00;;;;;;;;;;4930085;29;20107;-79
2023/10/08 15:52:47;;;;;;;3.65;1.10;;;;;;;;;;4929727;29;20024;-79
2023/10/08 15:55:13;;;;;;;5.88;1.17;;;;;;;;;;4931861;29;20028;-80
2023/10/08 15:57:40;;;;;;;2.95;1.10;;;;;;;;;;4932369;29;20115;-79
2023/10/08 16:00:10;;;;;;;6.30;1.13;;;;;;;;;;4932273;29;20036;-79
2023/10/08 16:02:36;;;;;;;4.53;1.02;;;;;;;;;;4929541;29;20434;-80
2023/10/08 16:05:07;;;;;;;5.30;1.23;;;;;;;;;;4931033;29;20036;-80
2023/10/08 16:07:33;;;;;;;5.22;1.15;;;;;;;;;;4932670;29;20035;-80
2023/10/08 16:09:59;;;;;;;4.70;1.50;;;;;;;;;;4926455;29;20059;-79
2023/10/08 16:12:25;;;;;;;3.78;1.85;;;;;;;;;;4926106;29;20403;-79
2023/10/08 16:14:51;;;;;;;5.97;2.92;;;;;;;;;;4925597;29;20032;-80
2023/10/08 16:17:19;;;;;;;5.32;2.00;;;;;;;;;;4926107;29;20036;-80